Time;durP1;ratioP1;P1;durP2;ratioP2;P2;SDS_P1;SDS_P2;PMS_P1;PMS_P2;Temp;Humidity;BMP_temperature;BMP_pressure;BME280_temperature;BME280_humidity;BME280_pressure;Samples;Min_cycle;Max_cycle;Signal;HPM_P1;HPM_P2
2021/12/25 00:01:47;;;;;;;15.70;8.68;;;;;;;;;;5134730;27;20023;-74
2021/12/25 00:04:13;;;;;;;15.75;8.70;;;;;;;;;;5117419;27;20068;-73
2021/12/25 00:06:42;;;;;;;15.07;8.95;;;;;;;;;;5135675;27;20023;-73
2021/12/25 00:09:08;;;;;;;10.18;7.63;;;;;;;;;;5135135;27;20102;-73
2021/12/25 00:11:34;;;;;;;10.65;7.63;;;;;;;;;;5135547;27;20409;-73
2021/12/25 00:14:00;;;;;;;11.85;8.05;;;;;;;;;;5134874;27;20072;-73
2021/12/25 00:16:27;;;;;;;13.23;8.68;;;;;;;;;;5135625;27;20042;-72
2021/12/25 00:18:53;;;;;;;13.77;8.60;;;;;;;;;;5135044;27;20424;-72
2021/12/25 00:21:19;;;;;;;14.82;9.48;;;;;;;;;;5134377;27;20027;-72
2021/12/25 00:23:45;;;;;;;14.93;9.38;;;;;;;;;;5134051;27;20140;-72
2021/12/25 00:26:25;;;;;;;12.65;9.30;;;;;;;;;;5134371;27;20090;-72
2021/12/25 00:29:04;;;;;;;12.02;9.13;;;;;;;;;;5133597;27;20429;-72
2021/12/25 00:31:56;;;;;;;13.77;8.87;;;;;;;;;;5134346;27;20079;-72
2021/12/25 00:34:23;;;;;;;12.68;7.97;;;;;;;;;;5132711;27;20098;-72
2021/12/25 00:36:50;;;;;;;14.88;9.90;;;;;;;;;;5133589;27;20026;-72
2021/12/25 00:39:16;;;;;;;11.30;8.35;;;;;;;;;;5134311;27;20019;-72
2021/12/25 00:41:42;;;;;;;14.63;9.05;;;;;;;;;;5133386;27;20023;-73
2021/12/25 00:44:08;;;;;;;12.02;8.38;;;;;;;;;;5134201;27;20015;-72
2021/12/25 00:46:34;;;;;;;11.05;7.88;;;;;;;;;;5134936;27;20371;-72
2021/12/25 00:49:00;;;;;;;11.68;7.05;;;;;;;;;;5134378;27;20051;-72
2021/12/25 00:51:26;;;;;;;11.30;7.97;;;;;;;;;;5135357;27;20023;-72
2021/12/25 00:53:52;;;;;;;10.60;8.20;;;;;;;;;;5134859;27;20383;-72
2021/12/25 00:56:18;;;;;;;11.52;8.38;;;;;;;;;;5135253;27;20076;-72
2021/12/25 00:58:47;;;;;;;12.00;7.60;;;;;;;;;;5134852;27;20076;-72
2021/12/25 01:01:13;;;;;;;11.07;7.30;;;;;;;;;;5135589;27;20019;-72
2021/12/25 01:03:39;;;;;;;10.10;7.22;;;;;;;;;;5135011;27;20115;-72
2021/12/25 01:06:05;;;;;;;10.82;7.40;;;;;;;;;;5134380;27;20050;-70
2021/12/25 01:08:31;;;;;;;12.10;7.90;;;;;;;;;;5135250;27;20374;-72
2021/12/25 01:10:58;;;;;;;11.25;7.30;;;;;;;;;;5134398;27;20118;-71
2021/12/25 01:13:31;;;;;;;11.20;7.65;;;;;;;;;;5135110;27;20015;-72
2021/12/25 01:16:24;;;;;;;12.38;7.35;;;;;;;;;;5134043;27;20532;-72
2021/12/25 01:18:58;;;;;;;9.52;6.63;;;;;;;;;;5134182;27;20027;-71
2021/12/25 01:32:57;;;;;;;12.23;7.68;;;;;;;;;;5133928;27;20035;-72
2021/12/25 01:40:13;;;;;;;13.60;8.68;;;;;;;;;;5133786;27;20046;-73
2021/12/25 01:47:54;;;;;;;19.60;10.55;;;;;;;;;;5132870;27;20070;-73
2021/12/25 01:50:21;;;;;;;12.25;8.75;;;;;;;;;;5133516;27;20353;-73
2021/12/25 01:52:48;;;;;;;15.63;10.60;;;;;;;;;;5132509;27;20521;-73
2021/12/25 01:55:17;;;;;;;14.82;10.73;;;;;;;;;;5114722;27;20031;-73
2021/12/25 01:57:43;;;;;;;14.25;10.73;;;;;;;;;;5132791;27;20026;-74
2021/12/25 02:00:29;;;;;;;15.40;11.57;;;;;;;;;;5132996;27;20015;-74
2021/12/25 02:02:55;;;;;;;16.67;11.32;;;;;;;;;;5132618;27;20039;-74
2021/12/25 02:05:21;;;;;;;18.08;11.68;;;;;;;;;;5133272;27;20023;-74
2021/12/25 02:07:47;;;;;;;14.60;11.30;;;;;;;;;;5132653;27;20031;-74
2021/12/25 02:10:17;;;;;;;15.85;11.20;;;;;;;;;;5115273;27;20059;-74
2021/12/25 02:12:43;;;;;;;16.60;11.88;;;;;;;;;;5133048;27;20023;-74
2021/12/25 02:15:15;;;;;;;19.83;12.20;;;;;;;;;;5133099;27;20107;-74
2021/12/25 02:20:17;;;;;;;17.77;11.95;;;;;;;;;;5133181;27;20039;-76
2021/12/25 02:22:45;;;;;;;20.63;11.95;;;;;;;;;;5133421;27;20478;-75
2021/12/25 02:25:11;;;;;;;16.67;11.32;;;;;;;;;;5133371;27;20034;-76
2021/12/25 02:27:38;;;;;;;18.33;11.75;;;;;;;;;;5133319;27;20027;-75
2021/12/25 02:30:05;;;;;;;15.70;11.30;;;;;;;;;;5132544;27;20102;-76
2021/12/25 02:32:34;;;;;;;17.40;11.98;;;;;;;;;;5133126;27;20023;-76
2021/12/25 02:35:00;;;;;;;21.58;12.77;;;;;;;;;;5132420;27;20019;-73
2021/12/25 02:37:26;;;;;;;17.17;12.48;;;;;;;;;;5132807;27;20035;-73
2021/12/25 02:39:52;;;;;;;16.30;11.18;;;;;;;;;;5132788;27;20030;-74
2021/12/25 02:42:19;;;;;;;17.85;11.43;;;;;;;;;;5133405;27;20015;-74
2021/12/25 02:44:45;;;;;;;15.70;11.57;;;;;;;;;;5133402;27;20037;-75
2021/12/25 02:47:18;;;;;;;18.25;11.52;;;;;;;;;;5132866;27;20027;-73
2021/12/25 02:49:51;;;;;;;15.23;10.88;;;;;;;;;;5133400;27;20027;-73
2021/12/25 02:52:18;;;;;;;16.95;10.73;;;;;;;;;;5133324;27;20106;-74
2021/12/25 02:54:47;;;;;;;17.77;10.88;;;;;;;;;;5133285;27;20416;-76
2021/12/25 02:57:13;;;;;;;17.10;11.63;;;;;;;;;;5114867;28;20551;-76
2021/12/25 02:59:39;;;;;;;16.45;10.68;;;;;;;;;;5133325;28;20035;-76
2021/12/25 03:02:07;;;;;;;18.65;11.43;;;;;;;;;;5132671;28;20187;-76
2021/12/25 03:04:35;;;;;;;16.02;10.25;;;;;;;;;;5133201;28;20015;-73
2021/12/25 03:07:01;;;;;;;15.65;11.35;;;;;;;;;;5132474;28;20027;-75
2021/12/25 03:09:26;;;;;;;18.70;12.85;;;;;;;;;;5133009;28;20419;-74
2021/12/25 03:11:53;;;;;;;16.88;12.30;;;;;;;;;;5132491;28;20038;-74
2021/12/25 03:14:35;;;;;;;21.05;12.60;;;;;;;;;;5133258;28;20019;-74
2021/12/25 03:17:02;;;;;;;20.92;12.13;;;;;;;;;;5132288;28;20100;-74
2021/12/25 03:19:32;;;;;;;21.90;13.00;;;;;;;;;;5132976;28;20379;-74
2021/12/25 03:21:59;;;;;;;17.75;11.90;;;;;;;;;;5132561;28;20027;-74
2021/12/25 03:24:26;;;;;;;19.95;11.85;;;;;;;;;;5132568;28;20482;-74
2021/12/25 03:26:55;;;;;;;20.15;11.63;;;;;;;;;;5133266;27;20460;-75
2021/12/25 03:29:21;;;;;;;15.52;10.57;;;;;;;;;;5137056;27;20080;-75
2021/12/25 03:31:47;;;;;;;11.45;7.32;;;;;;;;;;5136409;27;20068;-75
2021/12/25 03:34:13;;;;;;;10.55;6.30;;;;;;;;;;5136824;27;20456;-74
2021/12/25 03:36:39;;;;;;;10.80;5.97;;;;;;;;;;5137116;27;20460;-74
2021/12/25 03:39:08;;;;;;;8.43;5.80;;;;;;;;;;5136096;27;20023;-75
2021/12/25 03:41:34;;;;;;;11.93;6.32;;;;;;;;;;5136881;27;20019;-75
2021/12/25 03:44:01;;;;;;;13.18;8.57;;;;;;;;;;5136134;27;20457;-74
2021/12/25 03:46:31;;;;;;;14.48;7.55;;;;;;;;;;5136679;27;20421;-74
2021/12/25 03:49:04;;;;;;;;;;;;;;;;;;5136725;27;20095;-74
2021/12/25 03:59:52;;;;;;;15.38;8.40;;;;;;;;;;5136609;27;20050;-74
2021/12/25 04:02:24;;;;;;;9.43;6.68;;;;;;;;;;5136568;27;20227;-74
2021/12/25 04:04:51;;;;;;;10.95;6.57;;;;;;;;;;5135692;27;20368;-74
2021/12/25 04:07:41;;;;;;;9.13;6.05;;;;;;;;;;5136401;27;20402;-74
2021/12/25 04:10:04;;;;;;;6.93;4.60;;;;;;;;;;5134898;27;20028;-74
2021/12/25 04:12:30;;;;;;;6.28;4.10;;;;;;;;;;5136225;27;20024;-74
2021/12/25 04:14:56;;;;;;;6.85;4.28;;;;;;;;;;5135484;27;20023;-74
2021/12/25 04:17:22;;;;;;;6.03;3.97;;;;;;;;;;5135698;27;20479;-74
2021/12/25 04:19:48;;;;;;;7.78;4.18;;;;;;;;;;5135388;27;20027;-76
2021/12/25 04:22:20;;;;;;;5.97;3.72;;;;;;;;;;5136542;27;20031;-74
2021/12/25 04:24:47;;;;;;;5.55;3.40;;;;;;;;;;5136163;27;20015;-73
2021/12/25 04:27:16;;;;;;;5.03;3.67;;;;;;;;;;5135629;27;20497;-74
2021/12/25 05:02:08;;;;;;;2.67;2.15;;;;;;;;;;5134664;27;20042;-74
2021/12/25 05:04:49;;;;;;;4.60;2.45;;;;;;;;;;5135324;27;20015;-74
2021/12/25 05:07:16;;;;;;;4.07;2.03;;;;;;;;;;5135344;27;20107;-74
2021/12/25 05:09:42;;;;;;;3.40;2.00;;;;;;;;;;5134832;27;20027;-74
2021/12/25 05:12:08;;;;;;;2.88;1.60;;;;;;;;;;5134414;27;20395;-74
2021/12/25 05:14:34;;;;;;;3.08;1.65;;;;;;;;;;5135033;27;20072;-73
2021/12/25 05:17:00;;;;;;;2.38;1.70;;;;;;;;;;5133902;27;20083;-74
2021/12/25 05:19:26;;;;;;;2.15;1.88;;;;;;;;;;5135012;27;20114;-74
2021/12/25 05:21:52;;;;;;;3.05;1.88;;;;;;;;;;5134536;27;20111;-74
2021/12/25 05:24:18;;;;;;;2.95;2.10;;;;;;;;;;5135064;27;20023;-74
2021/12/25 05:26:44;;;;;;;2.95;2.38;;;;;;;;;;5134453;27;20096;-74
2021/12/25 05:29:10;;;;;;;2.83;2.03;;;;;;;;;;5134164;27;20253;-74
2021/12/25 05:31:37;;;;;;;3.92;2.42;;;;;;;;;;5134570;27;20391;-74
2021/12/25 05:34:03;;;;;;;2.97;2.30;;;;;;;;;;5134235;27;20033;-74
2021/12/25 05:36:29;;;;;;;3.80;2.40;;;;;;;;;;5134561;27;20460;-74
2021/12/25 05:38:58;;;;;;;4.45;2.63;;;;;;;;;;5134028;27;20082;-74
2021/12/25 05:41:25;;;;;;;3.50;2.50;;;;;;;;;;5115979;27;20035;-74
2021/12/25 05:43:51;;;;;;;4.45;2.72;;;;;;;;;;5133721;27;20019;-75
2021/12/25 05:46:18;;;;;;;4.28;2.85;;;;;;;;;;5134447;27;20030;-73
2021/12/25 05:48:45;;;;;;;3.75;3.00;;;;;;;;;;5134307;27;20556;-73
2021/12/25 05:51:12;;;;;;;4.93;3.33;;;;;;;;;;5132826;27;20249;-73
2021/12/25 05:53:38;;;;;;;5.25;3.38;;;;;;;;;;5134351;27;20023;-73
2021/12/25 05:56:04;;;;;;;6.50;4.15;;;;;;;;;;5133411;27;20069;-74
2021/12/25 05:58:30;;;;;;;6.00;4.28;;;;;;;;;;5134207;27;20031;-73
2021/12/25 06:00:56;;;;;;;9.52;5.68;;;;;;;;;;5133546;27;20083;-74
2021/12/25 06:03:22;;;;;;;7.25;5.00;;;;;;;;;;5134115;27;20058;-74
2021/12/25 06:05:48;;;;;;;10.23;6.35;;;;;;;;;;5134211;27;20043;-73
2021/12/25 06:08:15;;;;;;;8.40;6.20;;;;;;;;;;5132798;27;20098;-73
2021/12/25 06:10:41;;;;;;;11.45;6.95;;;;;;;;;;5115233;27;20019;-73
2021/12/25 06:13:10;;;;;;;9.38;6.70;;;;;;;;;;5132165;27;20526;-74
2021/12/25 06:15:36;;;;;;;11.82;6.65;;;;;;;;;;5133504;27;20466;-74
2021/12/25 06:18:03;;;;;;;10.35;6.78;;;;;;;;;;5132332;27;20063;-74
2021/12/25 06:20:29;;;;;;;9.70;6.57;;;;;;;;;;5133262;27;20055;-74
2021/12/25 06:22:55;;;;;;;9.77;6.22;;;;;;;;;;5132574;27;20023;-75
2021/12/25 06:25:21;;;;;;;10.35;6.70;;;;;;;;;;5133417;27;20032;-74
2021/12/25 06:27:47;;;;;;;12.00;6.75;;;;;;;;;;5132867;27;20091;-74
2021/12/25 06:30:14;;;;;;;11.07;6.90;;;;;;;;;;5132352;27;20698;-87
2021/12/25 06:32:40;;;;;;;10.30;6.97;;;;;;;;;;5133279;27;20057;-73
2021/12/25 06:35:07;;;;;;;10.35;6.78;;;;;;;;;;5132158;27;20074;-74
2021/12/25 06:37:33;;;;;;;9.20;6.10;;;;;;;;;;5133001;27;20021;-73
2021/12/25 06:39:59;;;;;;;8.55;6.82;;;;;;;;;;5132284;27;20042;-73
2021/12/25 06:42:25;;;;;;;11.18;7.45;;;;;;;;;;5132824;27;20084;-73
2021/12/25 06:44:51;;;;;;;9.13;6.63;;;;;;;;;;5133056;27;20022;-73
2021/12/25 06:47:17;;;;;;;9.80;6.90;;;;;;;;;;5132190;27;20031;-73
2021/12/25 06:49:43;;;;;;;12.27;8.38;;;;;;;;;;5132855;27;20051;-73
2021/12/25 06:52:09;;;;;;;10.90;7.82;;;;;;;;;;5131857;27;20062;-73
2021/12/25 06:54:35;;;;;;;13.30;8.55;;;;;;;;;;5132961;27;20035;-73
2021/12/25 06:57:02;;;;;;;14.45;8.93;;;;;;;;;;5131916;27;20019;-73
2021/12/25 06:59:30;;;;;;;11.85;7.72;;;;;;;;;;5132721;28;20066;-73
2021/12/25 07:01:56;;;;;;;13.88;8.38;;;;;;;;;;5134448;27;20056;-73
2021/12/25 07:04:22;;;;;;;12.18;6.80;;;;;;;;;;5139958;27;20019;-73
2021/12/25 07:06:48;;;;;;;12.93;7.63;;;;;;;;;;5138466;27;20023;-73
2021/12/25 07:09:14;;;;;;;11.60;6.90;;;;;;;;;;5138283;27;20375;-73
2021/12/25 07:11:40;;;;;;;9.93;6.45;;;;;;;;;;5138282;27;20019;-72
2021/12/25 07:14:09;;;;;;;9.02;6.63;;;;;;;;;;5137775;27;20019;-73
2021/12/25 07:16:35;;;;;;;10.15;6.30;;;;;;;;;;5138607;27;20030;-73
2021/12/25 07:19:01;;;;;;;9.25;6.18;;;;;;;;;;5137917;27;20031;-72
2021/12/25 07:21:27;;;;;;;13.02;6.43;;;;;;;;;;5138692;27;20022;-73
2021/12/25 07:23:53;;;;;;;10.38;7.03;;;;;;;;;;5138309;27;20030;-74
2021/12/25 07:26:19;;;;;;;10.70;6.85;;;;;;;;;;5138560;27;20023;-73
2021/12/25 07:28:46;;;;;;;11.52;6.82;;;;;;;;;;5135451;27;20027;-73
2021/12/25 07:31:12;;;;;;;8.75;6.00;;;;;;;;;;5137854;27;20114;-73
2021/12/25 07:33:40;;;;;;;9.40;6.07;;;;;;;;;;5138194;27;20405;-73
2021/12/25 07:36:06;;;;;;;11.75;6.70;;;;;;;;;;5134966;27;20012;-74
2021/12/25 07:38:33;;;;;;;9.32;6.05;;;;;;;;;;5138096;27;20380;-73
2021/12/25 07:40:59;;;;;;;13.70;7.05;;;;;;;;;;5137853;27;20026;-73
2021/12/25 07:43:25;;;;;;;10.68;6.53;;;;;;;;;;5135312;27;20055;-74
2021/12/25 07:45:52;;;;;;;11.32;6.90;;;;;;;;;;5138242;27;20027;-74
2021/12/25 07:48:20;;;;;;;11.43;6.45;;;;;;;;;;5138127;27;20086;-80
2021/12/25 07:50:47;;;;;;;10.82;6.82;;;;;;;;;;5135440;27;20046;-74
2021/12/25 07:53:13;;;;;;;10.07;6.40;;;;;;;;;;5137681;27;20046;-74
2021/12/25 07:55:39;;;;;;;12.23;7.80;;;;;;;;;;5120343;27;20519;-79
2021/12/25 07:58:07;;;;;;;11.85;7.05;;;;;;;;;;5137262;27;20054;-73
2021/12/25 08:00:33;;;;;;;8.73;6.28;;;;;;;;;;5138304;27;20464;-75
2021/12/25 08:02:59;;;;;;;10.88;6.50;;;;;;;;;;5137592;27;20023;-74
2021/12/25 08:05:25;;;;;;;11.38;7.47;;;;;;;;;;5138137;27;20467;-75
2021/12/25 08:07:51;;;;;;;10.98;6.47;;;;;;;;;;5138251;27;20019;-75
2021/12/25 08:10:19;;;;;;;11.43;7.18;;;;;;;;;;5137236;27;20419;-75
2021/12/25 08:12:44;;;;;;;10.95;7.00;;;;;;;;;;5139120;27;20088;-75
2021/12/25 08:15:12;;;;;;;11.93;7.28;;;;;;;;;;5116036;27;20023;-74
2021/12/25 08:17:38;;;;;;;10.23;7.10;;;;;;;;;;5136351;27;20388;-73
2021/12/25 08:20:05;;;;;;;10.85;7.00;;;;;;;;;;5134945;27;20424;-67
2021/12/25 08:22:31;;;;;;;11.65;7.20;;;;;;;;;;5135752;27;20106;-68
2021/12/25 08:24:57;;;;;;;9.50;6.35;;;;;;;;;;5135248;27;20019;-71
2021/12/25 08:27:23;;;;;;;9.75;7.03;;;;;;;;;;5136122;27;20022;-70
2021/12/25 08:29:49;;;;;;;8.60;6.30;;;;;;;;;;5135896;27;20016;-70
2021/12/25 08:32:15;;;;;;;13.50;7.50;;;;;;;;;;5135375;27;20025;-68
2021/12/25 08:34:42;;;;;;;10.10;6.65;;;;;;;;;;5135630;27;20019;-71
2021/12/25 08:37:08;;;;;;;9.85;5.97;;;;;;;;;;5135058;27;20091;-67
2021/12/25 08:39:34;;;;;;;8.85;6.30;;;;;;;;;;5135380;27;20098;-68
2021/12/25 08:42:03;;;;;;;8.32;6.32;;;;;;;;;;5135164;27;20118;-68
2021/12/25 08:44:39;;;;;;;11.00;6.90;;;;;;;;;;5135175;27;20084;-68
2021/12/25 08:47:07;;;;;;;9.32;6.00;;;;;;;;;;5132077;27;20019;-68
2021/12/25 08:49:34;;;;;;;7.75;5.90;;;;;;;;;;5135362;27;20027;-68
2021/12/25 08:52:02;;;;;;;8.23;6.15;;;;;;;;;;5134508;27;20024;-68
2021/12/25 08:54:28;;;;;;;8.60;5.72;;;;;;;;;;5135020;27;20342;-68
2021/12/25 08:56:54;;;;;;;8.05;5.97;;;;;;;;;;5134661;27;20105;-70
2021/12/25 08:59:21;;;;;;;9.73;6.20;;;;;;;;;;5134044;27;20057;-70
2021/12/25 09:01:47;;;;;;;9.82;6.22;;;;;;;;;;5133998;27;20066;-69
2021/12/25 09:04:13;;;;;;;11.20;6.40;;;;;;;;;;5134035;27;20068;-67
2021/12/25 09:06:39;;;;;;;10.68;7.00;;;;;;;;;;5134459;27;20027;-70
2021/12/25 09:09:07;;;;;;;9.30;6.68;;;;;;;;;;5132605;27;20039;-70
2021/12/25 09:11:33;;;;;;;10.23;6.57;;;;;;;;;;5131936;27;20015;-72
2021/12/25 09:13:59;;;;;;;12.02;6.55;;;;;;;;;;5133484;27;20016;-72
2021/12/25 09:16:25;;;;;;;8.13;5.72;;;;;;;;;;5134583;27;20034;-73
2021/12/25 09:18:51;;;;;;;7.00;5.03;;;;;;;;;;5134545;27;20034;-71
2021/12/25 09:21:18;;;;;;;7.60;5.32;;;;;;;;;;5133869;27;20029;-71
2021/12/25 09:23:44;;;;;;;5.13;4.20;;;;;;;;;;5134891;27;20029;-70
2021/12/25 09:26:11;;;;;;;7.10;4.68;;;;;;;;;;5133907;27;20023;-71
2021/12/25 09:28:37;;;;;;;6.38;4.35;;;;;;;;;;5135042;27;20031;-78
2021/12/25 09:31:03;;;;;;;5.88;3.83;;;;;;;;;;5134062;27;20027;-73
2021/12/25 09:33:30;;;;;;;5.82;4.13;;;;;;;;;;5134633;27;20455;-72
2021/12/25 09:35:56;;;;;;;4.85;3.97;;;;;;;;;;5115449;27;20420;-72
2021/12/25 09:38:22;;;;;;;5.40;3.83;;;;;;;;;;5134202;27;20027;-73
2021/12/25 09:40:48;;;;;;;4.97;3.70;;;;;;;;;;5134030;27;20425;-73
2021/12/25 09:43:17;;;;;;;5.72;3.55;;;;;;;;;;5133756;27;20023;-77
2021/12/25 09:45:44;;;;;;;5.30;3.47;;;;;;;;;;5134043;27;20019;-76
2021/12/25 09:48:10;;;;;;;5.93;3.90;;;;;;;;;;5133569;27;20107;-74
2021/12/25 09:50:36;;;;;;;5.05;3.80;;;;;;;;;;5134256;27;20027;-71
2021/12/25 09:53:09;;;;;;;5.53;3.75;;;;;;;;;;5133515;27;20026;-71
2021/12/25 09:55:38;;;;;;;4.57;3.53;;;;;;;;;;5131198;27;20027;-72
2021/12/25 09:58:04;;;;;;;6.70;3.70;;;;;;;;;;5125822;27;20023;-73
2021/12/25 10:00:30;;;;;;;4.57;3.08;;;;;;;;;;5113390;28;20372;-74
2021/12/25 10:02:57;;;;;;;5.05;3.08;;;;;;;;;;5113136;28;20023;-72
2021/12/25 10:05:24;;;;;;;3.85;3.05;;;;;;;;;;5122782;27;20053;-68
2021/12/25 10:08:00;;;;;;;4.18;2.70;;;;;;;;;;5133272;27;20416;-69
2021/12/25 10:10:35;;;;;;;3.15;2.47;;;;;;;;;;5133031;27;20552;-69
2021/12/25 10:13:02;;;;;;;3.90;3.13;;;;;;;;;;5137991;27;20043;-70
2021/12/25 10:15:28;;;;;;;3.92;2.70;;;;;;;;;;5114284;27;20395;-70
2021/12/25 10:17:56;;;;;;;5.65;2.83;;;;;;;;;;5132892;27;20416;-73
2021/12/25 10:20:26;;;;;;;4.13;2.60;;;;;;;;;;5132792;27;20031;-72
2021/12/25 10:22:57;;;;;;;3.40;2.08;;;;;;;;;;5133194;27;20058;-71
2021/12/25 10:25:24;;;;;;;4.35;2.63;;;;;;;;;;5112806;27;20020;-77
2021/12/25 10:27:55;;;;;;;3.55;2.35;;;;;;;;;;5112538;28;20072;-81
2021/12/25 10:30:21;;;;;;;5.28;2.80;;;;;;;;;;5112121;28;20107;-82
2021/12/25 10:32:48;;;;;;;3.65;2.30;;;;;;;;;;5121804;27;20026;-77
2021/12/25 10:35:21;;;;;;;3.10;2.20;;;;;;;;;;5131922;27;20092;-74
2021/12/25 10:37:48;;;;;;;5.30;2.40;;;;;;;;;;5114706;27;20045;-74
2021/12/25 10:40:23;;;;;;;4.38;2.80;;;;;;;;;;5111540;28;20153;-73
2021/12/25 10:42:49;;;;;;;3.42;2.60;;;;;;;;;;5112173;28;20027;-75
2021/12/25 10:45:15;;;;;;;3.03;2.10;;;;;;;;;;5111702;28;20439;-71
2021/12/25 10:47:41;;;;;;;3.00;1.83;;;;;;;;;;5111538;28;20036;-72
2021/12/25 10:50:12;;;;;;;3.80;1.73;;;;;;;;;;5111326;28;20110;-72
2021/12/25 10:52:42;;;;;;;3.60;1.75;;;;;;;;;;5111883;28;20019;-72
2021/12/25 10:55:20;;;;;;;2.40;1.33;;;;;;;;;;5127530;27;20019;-70
2021/12/25 10:57:50;;;;;;;1.65;1.10;;;;;;;;;;5132547;27;20354;-74
2021/12/25 11:00:22;;;;;;;3.45;1.80;;;;;;;;;;5132437;28;20020;-75
2021/12/25 11:02:49;;;;;;;2.17;1.50;;;;;;;;;;5133363;28;20132;-75
2021/12/25 11:05:18;;;;;;;1.75;1.33;;;;;;;;;;5132635;28;20385;-77
2021/12/25 11:07:45;;;;;;;2.28;1.48;;;;;;;;;;5133450;28;20540;-76
2021/12/25 11:10:11;;;;;;;2.17;1.65;;;;;;;;;;5133192;28;20041;-76
2021/12/25 11:12:37;;;;;;;2.35;1.50;;;;;;;;;;5133314;28;20015;-73
2021/12/25 11:15:20;;;;;;;2.25;1.55;;;;;;;;;;5114839;28;20020;-76
2021/12/25 11:17:51;;;;;;;3.63;1.50;;;;;;;;;;5133168;28;20459;-73
2021/12/25 11:20:26;;;;;;;1.33;1.17;;;;;;;;;;5133353;28;20027;-79
2021/12/25 11:22:53;;;;;;;1.05;0.70;;;;;;;;;;5133005;28;20055;-73
2021/12/25 11:25:21;;;;;;;1.83;1.00;;;;;;;;;;5132294;28;20054;-72
2021/12/25 11:27:48;;;;;;;1.05;0.80;;;;;;;;;;5132966;28;20061;-76
2021/12/25 11:30:14;;;;;;;1.02;0.80;;;;;;;;;;5133035;28;20101;-75
2021/12/25 11:32:40;;;;;;;1.20;0.85;;;;;;;;;;5132990;28;20030;-76
2021/12/25 11:35:06;;;;;;;2.47;1.30;;;;;;;;;;5131817;28;20015;-70
2021/12/25 11:37:32;;;;;;;3.22;2.20;;;;;;;;;;5132367;28;20022;-76
2021/12/25 11:39:59;;;;;;;3.45;2.05;;;10.50;99.90;;;;;;5132746;28;20020;-75
2021/12/25 11:42:26;;;;;;;2.35;1.83;;;10.50;99.90;;;;;;5131939;28;20038;-78
2021/12/25 11:44:54;;;;;;;2.85;1.38;;;10.50;99.90;;;;;;5132411;28;20030;-72
2021/12/25 11:47:53;;;;;;;2.72;0.68;;;10.50;99.90;;;;;;5131377;28;20023;-71
2021/12/25 11:50:22;;;;;;;0.90;0.75;;;10.50;99.90;;;;;;5080992;27;20411;-80
2021/12/25 11:53:21;;;;;;;1.15;0.70;;;10.40;99.90;;;;;;5136167;27;20035;-72
2021/12/25 11:56:29;;;;;;;1.30;1.02;;;10.30;99.90;;;;;;5135930;27;20106;-71
2021/12/25 11:58:57;;;;;;;2.03;1.42;;;10.30;99.90;;;;;;5134340;27;20416;-70
2021/12/25 12:01:37;;;;;;;7.15;3.50;;;10.30;99.90;;;;;;5135384;27;20027;-72
2021/12/25 12:04:26;;;;;;;17.27;8.48;;;10.20;99.90;;;;;;5135203;27;20027;-71
2021/12/25 12:07:00;;;;;;;2.47;1.52;;;10.20;99.90;;;;;;5115038;28;20272;-73
2021/12/25 12:09:50;;;;;;;1.23;1.05;;;10.10;99.90;;;;;;5115996;28;20027;-74
2021/12/25 12:12:27;;;;;;;1.17;0.80;;;10.10;99.90;;;;;;5114466;28;20089;-74
2021/12/25 12:15:17;;;;;;;2.65;1.45;;;10.00;99.90;;;;;;5115115;28;20026;-73
2021/12/25 15:11:39;;;;;;;14.38;11.30;;;8.10;99.90;;;;;;5178763;23;20060;31
2021/12/25 15:14:14;;;;;;;16.48;11.60;;;8.00;99.90;;;;;;4970870;28;20058;-73
2021/12/25 15:16:49;;;;;;;16.40;11.60;;;7.90;99.90;;;;;;4973298;28;20031;-71
2021/12/25 15:19:37;;;;;;;18.55;11.45;;;7.80;99.90;;;;;;4956576;28;20050;-72
2021/12/25 15:22:15;;;;;;;15.05;11.25;;;7.70;99.90;;;;;;4973160;28;20058;-74
2021/12/25 15:24:58;;;;;;;14.15;10.65;;;7.70;99.90;;;;;;4972196;28;20027;-73
2021/12/25 15:27:26;;;;;;;15.40;10.55;;;7.60;99.90;;;;;;4957898;29;20027;-73
2021/12/25 15:29:56;;;;;;;17.42;11.35;;;7.60;99.90;;;;;;4957304;29;20054;-72
2021/12/25 15:32:30;;;;;;;16.98;11.40;;;7.40;99.90;;;;;;4957854;29;20031;-74
2021/12/25 15:34:57;;;;;;;16.70;11.63;;;7.30;99.90;;;;;;4957011;29;20042;-74
2021/12/25 15:37:29;;;;;;;17.77;10.95;;;7.20;99.90;;;;;;4957322;29;20531;-73
2021/12/25 15:39:57;;;;;;;15.40;11.35;;;7.10;99.90;;;;;;4956941;29;20042;-73
2021/12/25 15:42:26;;;;;;;18.23;12.75;;;7.10;99.90;;;;;;4959984;28;20070;-68
2021/12/25 15:44:52;;;;;;;17.33;12.43;;;7.00;99.90;;;;;;4978053;28;20038;-68
2021/12/25 15:47:19;;;;;;;17.80;12.73;;;6.90;99.90;;;;;;4976582;28;20523;-68
2021/12/25 15:49:45;;;;;;;18.90;12.35;;;6.90;99.90;;;;;;4976349;28;20035;-68
2021/12/25 15:52:11;;;;;;;18.45;12.95;;;6.80;99.90;;;;;;4975426;28;20058;-68
2021/12/25 15:54:38;;;;;;;18.42;12.68;;;6.90;99.90;;;;;;4976575;28;20034;-68
2021/12/25 15:57:10;;;;;;;17.65;13.63;;;6.80;99.90;;;;;;4976596;28;20035;-68
2021/12/25 15:59:39;;;;;;;16.83;12.70;;;6.70;99.90;;;;;;4976343;28;20129;-68
2021/12/25 16:02:12;;;;;;;19.15;13.45;;;6.70;99.90;;;;;;4976450;28;20034;-69
2021/12/25 16:04:39;;;;;;;21.75;12.88;;;6.70;99.90;;;;;;4977174;28;20130;-69
2021/12/25 16:07:07;;;;;;;19.75;13.18;;;6.70;99.90;;;;;;4976427;28;20031;-68
2021/12/25 16:09:33;;;;;;;19.88;15.00;;;6.60;99.90;;;;;;4975047;28;20031;-69
2021/12/25 16:12:00;;;;;;;18.73;14.55;;;6.50;99.90;;;;;;4957804;28;20037;-68
2021/12/25 16:14:27;;;;;;;19.90;13.60;;;6.50;99.90;;;;;;4975974;28;20035;-69
2021/12/25 16:16:54;;;;;;;25.52;14.60;;;6.50;99.90;;;;;;4958163;28;20022;-68
2021/12/25 16:19:20;;;;;;;22.35;15.48;;;6.50;99.90;;;;;;4950877;28;20535;-68
2021/12/25 16:21:46;;;;;;;29.38;19.00;;;6.50;99.90;;;;;;4975399;28;20042;-69
2021/12/25 16:24:13;;;;;;;23.67;15.75;;;6.50;99.90;;;;;;4976860;28;20027;-69
2021/12/25 16:26:40;;;;;;;16.60;13.20;;;6.50;99.90;;;;;;4975767;28;20109;-68
2021/12/25 16:29:06;;;;;;;21.88;14.98;;;6.60;99.90;;;;;;4976055;28;20043;-68
2021/12/25 16:31:34;;;;;;;19.95;14.32;;;6.50;99.90;;;;;;4968849;28;20029;-69
2021/12/25 16:34:07;;;;;;;17.60;14.00;;;6.50;99.90;;;;;;4973412;28;20030;-68
2021/12/25 16:36:34;;;;;;;26.55;15.38;;;6.40;99.90;;;;;;4975028;28;20035;-67
2021/12/25 16:39:03;;;;;;;24.00;15.50;;;6.40;99.90;;;;;;4974833;28;20431;-69
2021/12/25 16:41:29;;;;;;;21.13;13.70;;;6.40;99.90;;;;;;4975751;28;20464;-69
2021/12/25 16:43:55;;;;;;;16.25;12.20;;;6.30;99.90;;;;;;4975216;28;20118;-68
2021/12/25 16:46:21;;;;;;;19.13;13.27;;;6.30;99.90;;;;;;4975715;28;20102;-68
2021/12/25 16:48:47;;;;;;;16.55;12.55;;;6.30;99.90;;;;;;4975226;28;20038;-68
2021/12/25 16:51:13;;;;;;;15.23;11.95;;;6.10;99.90;;;;;;4975146;28;20533;-69
2021/12/25 16:53:40;;;;;;;17.38;12.30;;;6.10;99.90;;;;;;4974551;28;20030;-68
2021/12/25 16:56:05;;;;;;;16.67;11.98;;;6.00;99.90;;;;;;4975463;28;20035;-70
2021/12/25 16:58:31;;;;;;;17.67;12.15;;;5.80;99.90;;;;;;4975469;28;20033;-69
2021/12/25 17:00:57;;;;;;;17.63;11.43;;;5.70;99.90;;;;;;4974587;28;20034;-69
2021/12/25 17:03:23;;;;;;;17.52;11.45;;;5.60;99.90;;;;;;4973415;28;20518;-69
2021/12/25 17:05:50;;;;;;;17.13;10.43;;;5.60;99.90;;;;;;4974859;28;20034;-69
2021/12/25 17:08:16;;;;;;;14.93;11.07;;;5.50;99.90;;;;;;4975297;28;20380;-70
2021/12/25 17:10:42;;;;;;;15.32;10.77;;;5.50;99.90;;;;;;4974861;28;20035;-70
2021/12/25 17:13:08;;;;;;;16.27;10.25;;;5.40;99.90;;;;;;4975213;28;20043;-70
2021/12/25 17:15:37;;;;;;;14.35;9.77;;;5.40;99.90;;;;;;4975289;28;20380;-70
2021/12/25 17:18:04;;;;;;;14.88;10.40;;;5.30;99.90;;;;;;4974474;28;20066;-70
2021/12/25 17:20:33;;;;;;;13.65;10.80;;;5.30;99.90;;;;;;4975286;28;20035;-68
2021/12/25 17:22:59;;;;;;;14.70;10.82;;;5.20;99.90;;;;;;4974352;28;20034;-69
2021/12/25 17:25:25;;;;;;;14.48;11.00;;;5.20;99.90;;;;;;4975088;28;20140;-68
2021/12/25 17:27:52;;;;;;;16.77;11.75;;;5.10;99.90;;;;;;4974065;28;20066;-69
2021/12/25 17:30:22;;;;;;;16.35;10.75;;;5.00;99.90;;;;;;4975020;28;20038;-69
2021/12/25 17:32:48;;;;;;;;;;;5.10;99.90;;;;;;4957525;28;20483;-69
2021/12/25 17:35:14;;;;;;;14.88;11.15;;;5.10;99.90;;;;;;4957503;28;20000;-69
2021/12/25 17:37:40;;;;;;;16.08;11.18;;;5.00;99.90;;;;;;4974797;28;20031;-69
2021/12/25 17:40:09;;;;;;;16.13;11.90;;;5.10;99.90;;;;;;4974159;28;20146;-69
2021/12/25 17:42:42;;;;;;;16.57;11.73;;;5.10;99.90;;;;;;4974672;28;20037;-69
2021/12/25 17:45:08;;;;;;;18.55;12.02;;;5.00;99.90;;;;;;4974735;28;20334;-69
2021/12/25 17:47:34;;;;;;;17.60;11.65;;;4.90;99.90;;;;;;4974797;28;20130;-70
2021/12/25 17:50:00;;;;;;;15.80;13.05;;;4.80;99.90;;;;;;4956544;28;20475;-69
2021/12/25 17:52:26;;;;;;;26.55;15.43;;;4.80;99.90;;;;;;4974853;28;20041;-69
2021/12/25 17:54:52;;;;;;;17.75;13.00;;;4.80;99.90;;;;;;4973659;28;20057;-69
2021/12/25 17:57:17;;;;;;;21.27;13.07;;;4.80;99.90;;;;;;4974535;28;20026;-68
2021/12/25 17:59:44;;;;;;;26.80;16.92;;;4.80;99.90;;;;;;4973690;28;20348;-68
2021/12/25 18:02:11;;;;;;;21.83;15.27;;;4.90;99.90;;;;;;4974435;28;20035;-65
2021/12/25 18:04:36;;;;;;;22.20;13.27;;;4.80;99.90;;;;;;4974335;28;20440;-70
2021/12/25 18:07:03;;;;;;;20.85;13.52;;;4.80;99.90;;;;;;4973842;28;20567;-72